Time;durP1;ratioP1;P1;durP2;ratioP2;P2;SDS_P1;SDS_P2;PMS_P1;PMS_P2;Temp;Humidity;BMP_temperature;BMP_pressure;BME280_temperature;BME280_humidity;BME280_pressure;Samples;Min_cycle;Max_cycle;Signal;HPM_P1;HPM_P2
2023/01/12 00:02:19;;;;;;;5.93;0.70;;;6.30;1.00;;;;;;5050775;28;20415;-51
2023/01/12 00:04:45;;;;;;;8.83;1.00;;;7.80;1.00;;;;;;5051423;28;20491;-50
2023/01/12 00:07:13;;;;;;;5.30;1.23;;;6.20;33.40;;;;;;5051208;28;20495;-55
2023/01/12 00:09:38;;;;;;;7.40;0.93;;;6.20;93.50;;;;;;5051439;28;20465;-50
2023/01/12 00:12:06;;;;;;;6.28;1.00;;;6.30;99.90;;;;;;5051249;28;20492;-50
2023/01/12 00:14:33;;;;;;;8.13;1.20;;;6.30;1.00;;;;;;5050523;28;20381;-50
2023/01/12 00:16:59;;;;;;;7.75;1.10;;;6.40;1.00;;;;;;5051443;28;20370;-50
2023/01/12 00:19:24;;;;;;;10.10;1.50;;;7.40;1.00;;;;;;5051141;28;20700;-52
2023/01/12 00:22:01;;;;;;;9.57;1.27;;;6.50;1.00;;;;;;5050905;28;20847;-51
2023/01/12 00:24:29;;;;;;;4.95;0.98;;;6.60;99.90;;;;;;5050391;28;20472;-50
2023/01/12 00:26:57;;;;;;;6.90;0.80;;;6.60;99.90;;;;;;5051387;28;20688;-50
2023/01/12 00:29:24;;;;;;;6.63;1.20;;;8.50;99.90;;;;;;5050158;28;20381;-51
2023/01/12 00:31:51;;;;;;;5.32;1.20;;;6.90;1.00;;;;;;5050574;28;20413;-52
2023/01/12 00:34:17;;;;;;;5.80;0.80;;;6.90;99.90;;;;;;5067731;28;20395;-51
2023/01/12 00:36:44;;;;;;;11.70;1.50;;;7.00;99.90;;;;;;5070569;28;20457;-51
2023/01/12 00:39:10;;;;;;;7.80;1.10;;;7.10;99.90;;;;;;5070369;28;20372;-51
2023/01/12 00:47:06;;;;;;;5.07;0.90;;;7.10;1.00;;;;;;5070885;28;20371;-50
2023/01/12 00:49:33;;;;;;;9.13;1.00;;;7.10;99.90;;;;;;5069612;28;20713;-50
2023/01/12 00:51:58;;;;;;;8.60;1.20;;;7.20;99.90;;;;;;5069424;28;20411;-51
2023/01/12 00:54:24;;;;;;;5.97;1.10;;;7.10;1.00;;;;;;5069388;28;20380;-50
2023/01/12 00:56:50;;;;;;;8.90;1.10;;;7.20;1.00;;;;;;5070851;28;20809;-51
2023/01/12 00:59:15;;;;;;;5.57;0.90;;;7.10;1.00;;;;;;5069788;28;20389;-51
2023/01/12 01:01:41;;;;;;;5.67;1.10;;;7.50;1.00;;;;;;5070280;28;20387;-51
2023/01/12 01:04:06;;;;;;;6.63;1.08;;;6.90;85.10;;;;;;5070172;28;20853;-50
2023/01/12 01:06:32;;;;;;;4.17;0.90;;;6.80;99.90;;;;;;5069838;28;20384;-50
2023/01/12 01:08:58;;;;;;;8.18;0.95;;;6.80;99.90;;;;;;5070502;28;20765;-50
2023/01/12 01:11:23;;;;;;;4.80;0.80;;;6.80;99.90;;;;;;5069205;28;20430;-51
2023/01/12 01:13:49;;;;;;;6.90;1.10;;;6.70;99.90;;;;;;5051900;28;20896;-50
2023/01/12 01:16:16;;;;;;;5.47;1.20;;;8.40;99.90;;;;;;5069138;28;20391;-51
2023/01/12 01:18:43;;;;;;;5.80;0.85;;;7.30;99.90;;;;;;5070062;28;20372;-51
2023/01/12 01:21:10;;;;;;;8.95;1.20;;;8.50;1.00;;;;;;5070332;28;20410;-51
2023/01/12 01:23:37;;;;;;;5.90;1.10;;;6.90;1.00;;;;;;5070221;28;20371;-51
2023/01/12 01:26:08;;;;;;;5.40;1.20;;;7.00;1.00;;;;;;5069953;28;20384;-50
2023/01/12 01:28:35;;;;;;;7.40;1.38;;;7.00;1.00;;;;;;5068727;28;20368;-51
2023/01/12 01:31:05;;;;;;;5.30;0.90;;;7.50;1.00;;;;;;5070299;28;20376;-50
2023/01/12 01:33:31;;;;;;;5.43;1.40;;;7.20;99.90;;;;;;5068776;28;20407;-50
2023/01/12 01:35:57;;;;;;;6.70;1.27;;;7.30;99.90;;;;;;5069458;28;20399;-50
2023/01/12 01:38:23;;;;;;;5.50;1.00;;;7.40;99.90;;;;;;5069450;28;20375;-50
2023/01/12 01:40:49;;;;;;;6.10;1.27;;;8.80;1.00;;;;;;5069952;28;20462;-50
2023/01/12 01:43:17;;;;;;;7.18;1.30;;;7.30;99.90;;;;;;5068796;28;20384;-50
2023/01/12 01:45:44;;;;;;;7.72;1.10;;;7.40;1.00;;;;;;5070237;28;20463;-53
2023/01/12 01:48:13;;;;;;;7.18;0.95;;;7.40;1.00;;;;;;5051952;28;20396;-55
2023/01/12 01:50:44;;;;;;;8.00;1.10;;;7.30;99.90;;;;;;5069616;28;20862;-50
2023/01/12 01:53:14;;;;;;;7.50;1.38;;;7.60;99.90;;;;;;5069219;28;20399;-54
2023/01/12 01:55:49;;;;;;;9.90;1.38;;;7.50;99.90;;;;;;5069774;28;20388;-50
2023/01/12 01:58:21;;;;;;;7.40;1.10;;;7.50;99.90;;;;;;5069485;28;20376;-50
2023/01/12 02:00:47;;;;;;;6.60;0.80;;;7.70;1.00;;;;;;5070101;28;20958;-50
2023/01/12 02:03:15;;;;;;;6.20;1.30;;;7.70;1.00;;;;;;5071143;28;20392;-56
2023/01/12 02:05:44;;;;;;;6.20;0.90;;;7.70;1.00;;;;;;5073257;28;20423;-50
2023/01/12 02:08:38;;;;;;;8.50;1.30;;;9.50;1.00;;;;;;5073221;28;20399;-50
2023/01/12 02:16:19;;;;;;;7.93;1.47;;;7.70;1.00;;;;;;5074087;28;20936;-50
2023/01/12 02:16:39;;;;;;;6.00;0.80;;;7.70;1.00;;;;;;5072600;28;20448;-50
2023/01/12 02:19:24;;;;;;;4.40;0.80;;;8.80;1.00;;;;;;5073330;28;20371;-50
2023/01/12 02:22:07;;;;;;;5.40;0.80;;;7.70;1.00;;;;;;5072607;28;20431;-50
2023/01/12 02:24:33;;;;;;;7.70;1.00;;;7.70;1.00;;;;;;5071856;28;20459;-52
2023/01/12 02:27:13;;;;;;;5.00;0.80;;;7.60;1.00;;;;;;5072101;28;20478;-50
2023/01/12 02:29:58;;;;;;;5.93;1.20;;;7.60;1.00;;;;;;5072585;28;20410;-50
2023/01/12 02:32:35;;;;;;;5.35;0.90;;;7.70;1.00;;;;;;5071856;28;20769;-50
2023/01/12 02:35:15;;;;;;;5.60;1.00;;;7.70;1.00;;;;;;5072737;28;20399;-50
2023/01/12 02:37:46;;;;;;;7.90;1.10;;;7.70;1.00;;;;;;5072804;28;20384;-51
2023/01/12 02:40:38;;;;;;;6.15;0.90;;;7.70;1.00;;;;;;5072512;28;20435;-55
2023/01/12 02:43:23;;;;;;;6.57;1.20;;;7.70;99.90;;;;;;5034530;28;21067;-50
2023/01/12 02:45:54;;;;;;;6.50;1.10;;;7.70;99.90;;;;;;5065003;28;20882;-50
2023/01/12 02:48:23;;;;;;;5.00;0.90;;;7.70;99.90;;;;;;5063941;28;20421;-50
2023/01/12 02:50:57;;;;;;;4.80;0.90;;;8.30;1.00;;;;;;5072441;28;20449;-51
2023/01/12 02:53:45;;;;;;;4.68;0.85;;;7.50;1.00;;;;;;5071982;28;20407;-53
2023/01/12 02:56:16;;;;;;;5.88;1.10;;;7.50;1.00;;;;;;5072985;28;20392;-53
2023/01/12 02:58:48;;;;;;;7.60;1.30;;;7.50;1.00;;;;;;5072907;28;20454;-50
2023/01/12 03:01:16;;;;;;;8.20;1.58;;;9.10;1.00;;;;;;5072215;28;20467;-55
2023/01/12 03:03:42;;;;;;;4.78;1.00;;;7.80;1.00;;;;;;5072649;28;20380;-50
2023/01/12 03:06:08;;;;;;;7.90;1.33;;;7.50;1.00;;;;;;5072755;28;20706;-50
2023/01/12 03:08:38;;;;;;;5.22;1.05;;;7.50;1.00;;;;;;5072147;28;20395;-50
2023/01/12 03:11:20;;;;;;;5.15;1.17;;;8.70;1.00;;;;;;5073008;28;20442;-50
2023/01/12 03:13:53;;;;;;;5.75;1.30;;;7.50;1.00;;;;;;5071354;28;20457;-50
2023/01/12 03:16:26;;;;;;;7.65;0.73;;;7.40;1.00;;;;;;5072147;28;20415;-50
2023/01/12 03:19:00;;;;;;;5.15;0.90;;;7.40;31.50;;;;;;5072464;28;20400;-50
2023/01/12 03:21:29;;;;;;;5.88;0.80;;;7.40;1.00;;;;;;5071893;28;20483;-50
2023/01/12 03:24:02;;;;;;;8.30;1.00;;;7.50;1.00;;;;;;5072016;28;20717;-50
2023/01/12 03:26:31;;;;;;;4.93;0.90;;;8.90;1.00;;;;;;5071372;28;20425;-50
2023/01/12 03:29:09;;;;;;;7.95;1.35;;;7.60;1.00;;;;;;5054719;28;20375;-50
2023/01/12 03:31:35;;;;;;;8.30;1.00;;;7.60;1.00;;;;;;5063604;28;20759;-50
2023/01/12 03:34:01;;;;;;;6.50;1.10;;;7.70;1.00;;;;;;5067360;28;20510;-50
2023/01/12 03:36:51;;;;;;;6.85;0.82;;;7.60;1.00;;;;;;5071452;28;20482;-51
2023/01/12 03:39:35;;;;;;;10.13;1.05;;;7.50;1.00;;;;;;5071344;28;20399;-50
2023/01/12 03:42:14;;;;;;;9.45;1.02;;;7.60;1.00;;;;;;5072095;28;20379;-50
2023/01/12 03:45:01;;;;;;;6.60;1.30;;;7.70;1.00;;;;;;5071247;28;20800;-50
2023/01/12 03:47:30;;;;;;;6.93;1.10;;;7.60;1.00;;;;;;5071920;28;20379;-50
2023/01/12 03:50:00;;;;;;;10.43;1.55;;;7.60;1.00;;;;;;5071748;28;20922;-50
2023/01/12 03:52:29;;;;;;;7.60;1.07;;;7.60;1.00;;;;;;5070810;28;20404;-50
2023/01/12 03:54:57;;;;;;;5.70;1.20;;;7.60;1.00;;;;;;5071844;28;20525;-50
2023/01/12 03:57:23;;;;;;;6.65;1.17;;;8.70;1.00;;;;;;5071507;28;20384;-50
2023/01/12 03:59:49;;;;;;;6.38;1.73;;;7.60;1.00;;;;;;5071606;28;20372;-50
2023/01/12 04:02:15;;;;;;;8.25;1.35;;;8.40;1.00;;;;;;5070666;28;20414;-50
2023/01/12 04:04:40;;;;;;;5.33;1.10;;;7.50;1.00;;;;;;5071813;28;20384;-50
2023/01/12 04:07:06;;;;;;;5.93;0.80;;;8.90;1.00;;;;;;5071653;28;20859;-50
2023/01/12 04:09:32;;;;;;;6.70;2.00;;;7.60;1.00;;;;;;5070993;28;20597;-49
2023/01/12 04:12:09;;;;;;;5.28;0.77;;;7.80;1.00;;;;;;5053455;28;21109;-50
2023/01/12 04:14:36;;;;;;;7.85;1.38;;;7.70;1.00;;;;;;5070768;28;20379;-50
2023/01/12 04:17:02;;;;;;;5.90;1.10;;;7.70;1.00;;;;;;5070693;28;20733;-50
2023/01/12 04:19:27;;;;;;;6.68;1.00;;;7.70;1.00;;;;;;5070194;28;20383;-50
2023/01/12 04:24:37;;;;;;;5.40;0.90;;;7.60;1.00;;;;;;5070072;28;20466;-49
2023/01/12 04:27:03;;;;;;;5.40;1.00;;;7.60;1.00;;;;;;5070900;28;20881;-50
2023/01/12 04:29:28;;;;;;;5.45;0.80;;;7.80;1.00;;;;;;5070085;28;20384;-50
2023/01/12 04:31:54;;;;;;;4.90;0.90;;;9.20;1.00;;;;;;5071123;28;20396;-50
2023/01/12 04:34:20;;;;;;;10.57;1.30;;;7.80;99.90;;;;;;5069674;28;20392;-51
2023/01/12 04:36:45;;;;;;;6.20;1.70;;;7.80;99.90;;;;;;5070371;28;20411;-50
2023/01/12 04:39:11;;;;;;;7.45;1.17;;;8.40;1.00;;;;;;5052692;28;20442;-50
2023/01/12 04:41:36;;;;;;;6.37;1.00;;;8.40;99.90;;;;;;5069676;28;20383;-51
2023/01/12 04:44:03;;;;;;;8.77;1.00;;;7.80;99.90;;;;;;5070401;28;20380;-52
2023/01/12 04:46:29;;;;;;;10.52;1.02;;;7.70;1.00;;;;;;5069795;28;20388;-51
2023/01/12 04:48:54;;;;;;;7.70;1.15;;;7.60;1.00;;;;;;5070640;28;20888;-50
2023/01/12 04:51:20;;;;;;;6.60;1.10;;;8.60;1.00;;;;;;5069702;28;20369;-52
2023/01/12 04:53:47;;;;;;;6.30;1.60;;;9.50;1.00;;;;;;5069052;28;20809;-50
2023/01/12 04:56:13;;;;;;;6.60;1.00;;;7.70;1.00;;;;;;5070029;28;20506;-50
2023/01/12 04:58:41;;;;;;;6.25;1.10;;;7.80;1.00;;;;;;5068733;28;20453;-51
2023/01/12 05:01:09;;;;;;;6.07;1.05;;;7.80;1.00;;;;;;5070004;28;20454;-50
2023/01/12 05:03:35;;;;;;;8.07;1.07;;;7.80;99.90;;;;;;5069166;28;20380;-51
2023/01/12 05:06:01;;;;;;;7.75;1.40;;;7.80;99.90;;;;;;5069633;28;20471;-51
2023/01/12 05:11:11;;;;;;;8.73;1.20;;;8.00;99.90;;;;;;5067290;28;20410;-50
2023/01/12 05:13:37;;;;;;;6.90;1.10;;;7.80;99.90;;;;;;5069465;28;20869;-50
2023/01/12 05:16:17;;;;;;;7.73;1.13;;;7.90;99.90;;;;;;5070691;28;20403;-51
2023/01/12 05:18:44;;;;;;;8.00;0.90;;;6.80;99.90;;;;;;5070274;28;20380;-50
2023/01/12 05:21:10;;;;;;;9.97;1.20;;;7.90;99.90;;;;;;5067235;28;20404;-50
2023/01/12 05:23:36;;;;;;;5.10;0.98;;;8.00;99.90;;;;;;5062931;28;20395;-50
2023/01/12 05:26:04;;;;;;;7.70;1.20;;;8.30;99.90;;;;;;5068839;28;20400;-49
2023/01/12 05:28:30;;;;;;;5.85;1.08;;;8.00;99.90;;;;;;5066328;28;20848;-50
2023/01/12 05:31:02;;;;;;;6.40;1.13;;;8.00;99.90;;;;;;5069720;28;20825;-49
2023/01/12 05:33:28;;;;;;;6.50;1.20;;;8.80;99.90;;;;;;5069232;28;20407;-50
2023/01/12 05:35:53;;;;;;;12.60;1.60;;;8.00;99.90;;;;;;5069974;28;20494;-50
2023/01/12 05:38:19;;;;;;;7.33;1.10;;;8.00;99.90;;;;;;5068866;28;20392;-49
2023/01/12 05:40:44;;;;;;;11.00;0.90;;;8.00;99.90;;;;;;5067260;28;20513;-50
2023/01/12 05:46:04;;;;;;;9.07;1.30;;;8.00;99.90;;;;;;5067905;28;20355;-50
2023/01/12 05:48:31;;;;;;;7.90;0.90;;;8.00;99.90;;;;;;5064474;28;20929;-50
2023/01/12 05:51:04;;;;;;;7.10;1.27;;;8.00;99.90;;;;;;5060840;28;20504;-49
2023/01/12 05:53:30;;;;;;;9.13;1.08;;;8.00;99.90;;;;;;5056231;28;20777;-51
2023/01/12 05:55:56;;;;;;;6.30;0.90;;;8.10;99.90;;;;;;5069127;28;20376;-49
2023/01/12 05:58:23;;;;;;;6.78;1.13;;;9.00;99.90;;;;;;5055953;28;20393;-50
2023/01/12 06:00:48;;;;;;;8.30;1.20;;;8.00;99.90;;;;;;5061924;28;20390;-50
2023/01/12 06:03:14;;;;;;;6.50;1.40;;;8.10;99.90;;;;;;5063644;28;20704;-50
2023/01/12 06:05:40;;;;;;;8.20;1.20;;;9.80;99.90;;;;;;5066104;28;20720;-50
2023/01/12 06:08:06;;;;;;;7.10;1.30;;;8.00;92.60;;;;;;5046834;28;20397;-49
2023/01/12 06:10:33;;;;;;;7.60;1.60;;;8.00;90.30;;;;;;5066041;28;20441;-49
2023/01/12 06:15:43;;;;;;;7.27;0.90;;;7.80;99.90;;;;;;5076366;28;20390;-50
2023/01/12 06:18:09;;;;;;;7.13;1.00;;;7.80;99.90;;;;;;5049874;28;20381;-50
2023/01/12 06:20:35;;;;;;;8.65;1.25;;;7.90;99.90;;;;;;5048396;28;20635;-50
2023/01/12 06:23:02;;;;;;;8.17;1.17;;;7.90;99.90;;;;;;5054649;28;20505;-50
2023/01/12 06:25:30;;;;;;;12.27;1.53;;;7.80;99.90;;;;;;5068857;28;20382;-50
2023/01/12 06:27:56;;;;;;;8.63;1.20;;;7.80;99.90;;;;;;5069295;28;20476;-50
2023/01/12 06:30:22;;;;;;;6.00;0.80;;;9.30;99.90;;;;;;5069315;28;20869;-50
2023/01/12 06:32:48;;;;;;;7.45;1.15;;;8.00;99.90;;;;;;5069666;28;20488;-50
2023/01/12 06:35:14;;;;;;;10.60;2.20;;;7.90;99.90;;;;;;5069390;28;20435;-50
2023/01/12 06:37:39;;;;;;;8.10;1.10;;;7.90;99.90;;;;;;5068911;28;20379;-50
2023/01/12 06:40:05;;;;;;;6.23;1.20;;;7.90;99.90;;;;;;5069194;28;20379;-50
2023/01/12 06:42:32;;;;;;;7.93;0.90;;;7.90;99.90;;;;;;5068225;28;20944;-51
2023/01/12 06:45:00;;;;;;;7.97;1.37;;;7.90;99.90;;;;;;5069249;28;20386;-51
2023/01/12 06:47:27;;;;;;;7.50;0.90;;;7.90;99.90;;;;;;5068587;28;20376;-50
2023/01/12 06:49:53;;;;;;;7.18;1.00;;;9.20;99.90;;;;;;5071095;28;20398;-50
2023/01/12 06:52:23;;;;;;;10.20;1.50;;;8.00;99.90;;;;;;5072006;28;20784;-50
2023/01/12 06:54:49;;;;;;;6.73;1.40;;;7.90;99.90;;;;;;5073008;28;20430;-50
2023/01/12 06:57:15;;;;;;;5.97;1.17;;;8.00;99.90;;;;;;5054408;28;20384;-55
2023/01/12 06:59:41;;;;;;;7.37;1.30;;;8.00;99.90;;;;;;5072848;28;20406;-50
2023/01/12 07:02:13;;;;;;;11.65;1.10;;;8.40;99.90;;;;;;5072176;28;20855;-50
2023/01/12 07:04:39;;;;;;;7.10;0.90;;;8.10;99.90;;;;;;5064182;28;20459;-54
2023/01/12 07:07:06;;;;;;;10.60;1.10;;;8.10;99.90;;;;;;5071155;28;20434;-50
2023/01/12 07:09:32;;;;;;;9.27;1.55;;;8.10;99.90;;;;;;5071440;28;20467;-50
2023/01/12 07:11:58;;;;;;;7.80;1.33;;;8.10;99.90;;;;;;5071928;28;20490;-50
2023/01/12 07:14:23;;;;;;;5.93;1.00;;;8.20;99.90;;;;;;5071616;28;20441;-50
2023/01/12 07:16:49;;;;;;;8.23;1.10;;;8.20;99.90;;;;;;5054190;28;20391;-50
2023/01/12 07:19:15;;;;;;;4.40;0.70;;;8.20;99.90;;;;;;5072469;28;20375;-49
2023/01/12 07:21:40;;;;;;;6.40;1.27;;;8.20;99.90;;;;;;5071755;28;20395;-50
2023/01/12 07:24:06;;;;;;;6.07;0.75;;;8.20;99.90;;;;;;5072456;28;20428;-50
2023/01/12 07:26:32;;;;;;;8.37;1.00;;;8.30;99.90;;;;;;5072034;28;20384;-50
2023/01/12 07:28:57;;;;;;;5.68;1.00;;;8.40;81.30;;;;;;5072059;28;20379;-50
2023/01/12 07:31:23;;;;;;;8.40;1.30;;;9.50;73.80;;;;;;5071215;28;20387;-50
2023/01/12 07:33:52;;;;;;;7.45;1.83;;;8.20;40.20;;;;;;5072181;28;20932;-50
2023/01/12 07:36:19;;;;;;;6.40;1.10;;;8.30;87.40;;;;;;5071492;28;20869;-55
2023/01/12 07:38:45;;;;;;;8.93;1.25;;;8.40;50.60;;;;;;5072202;28;20398;-50
2023/01/12 07:42:22;;;;;;;7.60;1.20;;;9.10;56.40;;;;;;5071955;28;20876;-50
2023/01/12 07:43:56;;;;;;;6.93;0.88;;;8.40;19.40;;;;;;5071621;28;20429;-50
2023/01/12 07:46:22;;;;;;;6.60;0.60;;;8.40;19.90;;;;;;5070558;28;20391;-51
2023/01/12 07:48:48;;;;;;;9.90;1.20;;;8.50;27.90;;;;;;5053555;28;20749;-50
2023/01/12 07:51:14;;;;;;;5.93;0.90;;;8.50;9.30;;;;;;5071326;28;20463;-51
2023/01/12 07:53:39;;;;;;;7.95;0.90;;;8.40;22.00;;;;;;5071223;28;20404;-50
2023/01/12 07:56:05;;;;;;;6.30;1.20;;;8.50;18.40;;;;;;5071635;28;20842;-51
2023/01/12 07:58:31;;;;;;;7.35;1.05;;;8.50;25.30;;;;;;5071088;28;20375;-50
2023/01/12 08:00:58;;;;;;;9.10;1.30;;;8.50;3.30;;;;;;5052581;28;21198;-52
2023/01/12 08:03:23;;;;;;;8.27;1.10;;;8.60;1.00;;;;;;5069820;28;20850;-51
2023/01/12 08:05:49;;;;;;;7.05;1.40;;;8.90;1.00;;;;;;5071233;28;20387;-50
2023/01/12 08:08:14;;;;;;;5.50;0.80;;;8.60;1.00;;;;;;5071110;28;20392;-52
2023/01/12 08:10:42;;;;;;;7.78;1.10;;;8.60;1.00;;;;;;5070719;28;20919;-52
2023/01/12 08:13:08;;;;;;;6.40;0.80;;;8.50;1.00;;;;;;5070998;28;20491;-51
2023/01/12 08:15:42;;;;;;;5.82;1.10;;;8.60;1.00;;;;;;5069819;28;20413;-52
2023/01/12 08:18:17;;;;;;;4.50;0.63;;;8.70;1.00;;;;;;5070909;28;20386;-51
2023/01/12 08:20:43;;;;;;;7.03;0.90;;;8.60;1.00;;;;;;5070333;28;20383;-51
2023/01/12 08:23:15;;;;;;;6.00;0.80;;;9.50;1.00;;;;;;5070836;28;20916;-51
2023/01/12 08:25:43;;;;;;;7.00;1.40;;;8.60;1.00;;;;;;5070103;28;21031;-50
2023/01/12 08:28:14;;;;;;;9.27;1.10;;;8.70;1.00;;;;;;5053014;28;20379;-50
2023/01/12 08:30:40;;;;;;;6.60;0.95;;;8.70;1.00;;;;;;5070215;28;20372;-50
2023/01/12 08:33:05;;;;;;;6.22;1.05;;;8.70;1.00;;;;;;5070547;28;20461;-50
2023/01/12 08:35:34;;;;;;;5.60;0.87;;;8.70;1.00;;;;;;5069713;28;20387;-50
2023/01/12 08:37:59;;;;;;;5.20;0.97;;;8.80;1.00;;;;;;5070666;28;20849;-51
2023/01/12 08:41:31;;;;;;;7.60;1.10;;;8.80;1.00;;;;;;5070165;28;20467;-52
2023/01/12 08:44:00;;;;;;;7.50;1.40;;;9.00;1.00;;;;;;5069958;28;20391;-52
2023/01/12 08:46:06;;;;;;;6.57;1.20;;;8.80;1.00;;;;;;5070017;28;20383;-53
2023/01/12 08:48:35;;;;;;;9.55;1.27;;;8.80;1.00;;;;;;5069782;28;20391;-52
2023/01/12 08:51:02;;;;;;;6.88;0.70;;;8.80;1.00;;;;;;5070434;28;20384;-52
2023/01/12 08:53:27;;;;;;;6.07;0.70;;;8.80;1.00;;;;;;5069525;28;20410;-52
2023/01/12 08:55:53;;;;;;;6.23;0.77;;;8.90;1.00;;;;;;5070394;28;20383;-52
2023/01/12 08:58:19;;;;;;;7.43;0.75;;;9.00;1.00;;;;;;5069765;28;20376;-56
2023/01/12 09:00:44;;;;;;;4.00;0.57;;;8.90;1.00;;;;;;5069797;28;20872;-52
2023/01/12 09:03:10;;;;;;;10.90;1.50;;;8.90;1.00;;;;;;5070056;28;20492;-52
2023/01/12 09:05:35;;;;;;;6.18;1.10;;;9.00;1.00;;;;;;5069461;28;20957;-52
2023/01/12 09:08:01;;;;;;;7.40;0.90;;;8.90;1.00;;;;;;5069989;28;20449;-52
2023/01/12 09:10:26;;;;;;;5.10;0.90;;;9.10;1.00;;;;;;5051980;28;20386;-52
2023/01/12 09:12:52;;;;;;;7.40;0.60;;;9.00;1.00;;;;;;5051198;28;20827;-52
2023/01/12 09:15:18;;;;;;;8.20;1.15;;;9.00;1.00;;;;;;5048668;28;20415;-56
2023/01/12 09:17:43;;;;;;;5.87;0.90;;;8.90;1.00;;;;;;5049218;28;20431;-50
2023/01/12 09:20:10;;;;;;;5.90;0.60;;;8.90;1.00;;;;;;5049860;28;20476;-49
2023/01/12 09:22:36;;;;;;;6.00;0.88;;;8.90;1.00;;;;;;5048702;28;20417;-49
2023/01/12 09:25:01;;;;;;;5.00;0.60;;;8.90;1.00;;;;;;5049972;28;20881;-49
2023/01/12 09:27:27;;;;;;;9.20;0.87;;;9.50;1.00;;;;;;5048987;28;20461;-49
2023/01/12 09:29:52;;;;;;;5.30;0.50;;;9.00;1.00;;;;;;5049829;28;20476;-50
2023/01/12 09:32:19;;;;;;;5.60;0.60;;;9.00;1.00;;;;;;5049414;28;20412;-55
2023/01/12 09:34:47;;;;;;;7.00;0.83;;;9.00;1.00;;;;;;5049143;28;20393;-50
2023/01/12 09:37:13;;;;;;;9.35;1.38;;;9.10;1.00;;;;;;5049633;28;20441;-52
2023/01/12 09:39:38;;;;;;;5.60;0.90;;;9.10;1.00;;;;;;5048436;28;20420;-52
2023/01/12 09:47:54;;;;;;;8.80;1.20;;;9.10;1.00;;;;;;5048526;28;20445;-53
2023/01/12 09:50:24;;;;;;;9.80;0.93;;;9.20;1.00;;;;;;5049478;28;20843;-56
2023/01/12 09:52:54;;;;;;;7.55;1.00;;;9.30;1.00;;;;;;5049953;28;20405;-52
2023/01/12 09:55:54;;;;;;;6.10;1.20;;;9.30;1.00;;;;;;5049532;28;20466;-57
2023/01/12 09:59:06;;;;;;;8.23;1.10;;;9.50;1.00;;;;;;5049157;28;20382;-56
2023/01/12 10:01:33;;;;;;;6.68;0.88;;;9.50;1.00;;;;;;4986710;28;20410;-52
2023/01/12 10:04:01;;;;;;;6.72;0.90;;;9.30;1.00;;;;;;4987746;28;20386;-52
2023/01/12 10:06:26;;;;;;;9.55;1.20;;;9.40;1.00;;;;;;5017596;28;20389;-52
2023/01/12 10:08:52;;;;;;;6.25;0.80;;;9.50;1.00;;;;;;5049292;28;20374;-52
2023/01/12 10:11:36;;;;;;;10.50;0.90;;;9.60;1.00;;;;;;5049530;28;20423;-52
2023/01/12 10:14:27;;;;;;;5.60;1.20;;;9.60;1.00;;;;;;5058431;28;20416;-52
2023/01/12 10:17:12;;;;;;;6.82;0.70;;;9.70;1.00;;;;;;5069206;28;20379;-52
2023/01/12 10:20:10;;;;;;;9.05;1.00;;;9.90;1.00;;;;;;5068432;28;20390;-53
2023/01/12 10:23:08;;;;;;;7.07;1.05;;;9.90;1.00;;;;;;5068397;28;20376;-52
2023/01/12 10:25:43;;;;;;;7.35;1.10;;;9.90;1.00;;;;;;5044194;28;20407;-52
2023/01/12 10:28:22;;;;;;;7.70;0.85;;;9.80;1.00;;;;;;5073020;28;20378;-52
2023/01/12 10:30:48;;;;;;;6.03;0.67;;;9.80;1.00;;;;;;5072867;28;20719;-52
2023/01/12 10:33:17;;;;;;;7.07;1.00;;;9.80;1.00;;;;;;5073010;28;20410;-52
2023/01/12 10:36:03;;;;;;;5.38;1.30;;;9.90;1.00;;;;;;5071943;28;20476;-53
2023/01/12 10:38:33;;;;;;;9.50;2.80;;;10.00;99.90;;;;;;5071959;28;20391;-52
2023/01/12 10:41:13;;;;;;;7.40;0.90;;;10.00;99.90;;;;;;5072359;28;21172;-52
2023/01/12 10:43:41;;;;;;;4.50;0.85;;;10.00;99.90;;;;;;5071657;28;20889;-53
2023/01/12 10:46:11;;;;;;;4.70;0.83;;;9.90;99.90;;;;;;5072886;28;20367;-53
2023/01/12 10:48:41;;;;;;;4.95;0.80;;;10.00;99.90;;;;;;5072037;28;20459;-52
2023/01/12 10:51:43;;;;;;;7.17;1.10;;;9.90;99.90;;;;;;5072728;28;20386;-52
2023/01/12 10:54:16;;;;;;;6.63;1.13;;;9.90;99.90;;;;;;5068660;28;20410;-52
2023/01/12 10:56:52;;;;;;;6.05;1.00;;;9.90;99.90;;;;;;5071759;28;21007;-52
2023/01/12 10:59:21;;;;;;;4.78;0.90;;;10.00;99.90;;;;;;5072601;28;20378;-53
2023/01/12 11:01:49;;;;;;;7.72;1.20;;;10.10;99.90;;;;;;5072078;28;20376;-52
2023/01/12 11:04:26;;;;;;;9.57;1.30;;;10.00;99.90;;;;;;5072361;28;20404;-52
2023/01/12 11:07:00;;;;;;;7.75;1.08;;;10.10;99.90;;;;;;5072791;28;20449;-52
2023/01/12 11:09:28;;;;;;;5.57;0.52;;;10.00;99.90;;;;;;5071623;28;20468;-53
2023/01/12 11:11:59;;;;;;;5.75;1.30;;;9.90;99.90;;;;;;5071933;28;20380;-52
2023/01/12 11:14:37;;;;;;;5.45;1.10;;;10.10;99.90;;;;;;5071310;28;20440;-54
2023/01/12 11:17:13;;;;;;;6.63;0.80;;;10.10;99.90;;;;;;5072075;28;21167;-52
2023/01/12 11:19:41;;;;;;;5.80;0.60;;;10.10;99.90;;;;;;5071484;28;20380;-51
2023/01/12 11:22:36;;;;;;;5.57;0.70;;;10.10;99.90;;;;;;5071874;28;20765;-53
2023/01/12 11:25:26;;;;;;;7.43;0.70;;;10.10;99.90;;;;;;5068944;28;20383;-53
2023/01/12 11:27:59;;;;;;;4.70;0.65;;;10.00;99.90;;;;;;5062082;28;20392;-50
2023/01/12 11:30:35;;;;;;;5.47;0.57;;;10.00;99.90;;;;;;5071095;28;20411;-55
2023/01/12 11:33:16;;;;;;;4.30;0.70;;;10.00;99.90;;;;;;5071498;28;20408;-53
2023/01/12 11:35:53;;;;;;;6.13;1.08;;;10.10;99.90;;;;;;5070163;28;20412;-53
2023/01/12 11:38:32;;;;;;;4.75;0.60;;;10.20;99.90;;;;;;5071762;28;20454;-53
2023/01/12 11:40:58;;;;;;;4.57;0.60;;;10.30;99.90;;;;;;5072080;28;20490;-53
2023/01/12 11:46:33;;;;;;;6.50;0.90;;;10.60;99.90;;;;;;5071632;28;21052;-53
2023/01/12 11:49:23;;;;;;;8.30;0.80;;;10.60;99.90;;;;;;5071641;28;20415;-53
2023/01/12 11:51:55;;;;;;;4.30;0.70;;;10.70;99.90;;;;;;5071403;28;20388;-53
2023/01/12 11:54:22;;;;;;;7.18;0.90;;;10.80;99.90;;;;;;5071351;28;20429;-57
2023/01/12 11:56:58;;;;;;;4.70;0.60;;;9.10;99.90;;;;;;5070711;28;20384;-53
2023/01/12 11:59:46;;;;;;;4.47;0.50;;;10.90;99.90;;;;;;5070473;28;20451;-57
2023/01/12 12:02:31;;;;;;;4.80;0.70;;;10.90;99.90;;;;;;5071410;28;20476;-53
2023/01/12 12:05:24;;;;;;;4.70;0.80;;;10.90;99.90;;;;;;5071106;28;20387;-53
2023/01/12 12:08:14;;;;;;;4.50;0.40;;;10.90;99.90;;;;;;5070861;28;20395;-54
2023/01/12 12:10:58;;;;;;;5.20;0.50;;;11.10;99.90;;;;;;5070258;28;20384;-53
2023/01/12 12:13:31;;;;;;;4.00;0.40;;;11.60;99.90;;;;;;5070454;28;20407;-57
2023/01/12 12:16:23;;;;;;;4.03;0.50;;;11.70;99.90;;;;;;5071108;28;20856;-53
2023/01/12 12:19:07;;;;;;;8.10;0.70;;;11.30;99.90;;;;;;5070868;28;20520;-53
2023/01/12 12:21:39;;;;;;;5.00;0.70;;;11.10;99.90;;;;;;5070301;28;20907;-53
2023/01/12 12:24:31;;;;;;;4.00;0.40;;;11.10;99.90;;;;;;5070805;28;20727;-53
2023/01/12 12:27:24;;;;;;;4.20;0.40;;;11.20;99.90;;;;;;5071082;28;20404;-53
2023/01/12 12:30:14;;;;;;;4.10;0.30;;;11.40;99.90;;;;;;5070814;28;20471;-53
2023/01/12 12:32:54;;;;;;;4.60;0.40;;;11.60;99.90;;;;;;5070254;28;20418;-53
2023/01/12 12:35:53;;;;;;;5.00;0.50;;;11.70;81.40;;;;;;5070253;28;20396;-54
2023/01/12 12:38:47;;;;;;;4.07;0.40;;;11.90;65.70;;;;;;5070892;28;20387;-54
2023/01/12 12:47:38;;;;;;;4.93;0.60;;;11.20;40.00;;;;;;5070537;28;20399;-53
2023/01/12 12:50:32;;;;;;;4.28;0.35;;;11.40;63.10;;;;;;5070713;28;20372;-54
2023/01/12 12:53:13;;;;;;;4.30;0.50;;;11.20;66.80;;;;;;5069652;28;20722;-53
2023/01/12 12:55:41;;;;;;;7.60;0.90;;;10.80;69.20;;;;;;5069731;28;20384;-53
2023/01/12 12:58:21;;;;;;;4.40;0.50;;;10.80;63.60;;;;;;5070086;28;20375;-53
2023/01/12 13:00:49;;;;;;;4.40;0.50;;;10.80;68.20;;;;;;5069505;28;20387;-54
2023/01/12 13:03:54;;;;;;;4.57;0.40;;;10.90;82.50;;;;;;5070447;28;20396;-53
2023/01/12 13:06:24;;;;;;;4.60;0.60;;;10.80;91.00;;;;;;4988489;28;20924;-53
2023/01/12 13:08:53;;;;;;;4.35;0.55;;;11.00;82.50;;;;;;4988509;28;20394;-53
2023/01/12 13:11:20;;;;;;;4.07;0.40;;;10.80;76.40;;;;;;5031502;28;20407;-54
2023/01/12 13:14:02;;;;;;;4.70;0.60;;;10.80;96.90;;;;;;5069117;28;20404;-54
2023/01/12 13:16:28;;;;;;;6.28;0.40;;;10.70;99.90;;;;;;5069351;28;20423;-54
2023/01/12 13:18:53;;;;;;;4.60;0.40;;;10.70;99.60;;;;;;5069862;28;20451;-53
2023/01/12 13:21:25;;;;;;;8.90;1.00;;;10.70;99.90;;;;;;5070016;28;20459;-53
2023/01/12 13:24:21;;;;;;;4.10;0.40;;;10.70;99.90;;;;;;5069818;28;20445;-53
2023/01/12 13:26:51;;;;;;;3.97;0.30;;;10.70;99.90;;;;;;5034684;28;20582;-53
2023/01/12 13:29:22;;;;;;;5.00;0.50;;;10.60;99.90;;;;;;5069774;28;20463;-53
2023/01/12 13:31:49;;;;;;;6.20;0.40;;;10.60;99.90;;;;;;5069179;28;20423;-54
2023/01/12 13:34:36;;;;;;;3.90;0.30;;;10.70;99.90;;;;;;5069673;28;20472;-54
2023/01/12 13:37:25;;;;;;;5.78;0.40;;;10.70;99.90;;;;;;5069646;28;20415;-53
2023/01/12 13:40:15;;;;;;;4.60;0.40;;;10.80;99.90;;;;;;5035445;28;20387;-55
2023/01/12 13:45:29;;;;;;;4.80;0.40;;;10.80;99.90;;;;;;5069088;28;20391;-55
2023/01/12 13:47:55;;;;;;;4.50;0.60;;;10.70;99.90;;;;;;5069960;28;20412;-54
2023/01/12 13:50:24;;;;;;;4.10;0.40;;;10.70;99.90;;;;;;5069499;28;20474;-54
2023/01/12 13:52:58;;;;;;;3.90;0.40;;;10.50;99.90;;;;;;5068912;28;20418;-53
2023/01/12 13:55:27;;;;;;;3.90;0.40;;;10.50;99.90;;;;;;5049886;28;20906;-58
2023/01/12 13:58:22;;;;;;;5.85;0.60;;;10.40;99.90;;;;;;5066617;28;20478;-51
2023/01/12 14:01:34;;;;;;;4.60;0.40;;;10.40;99.90;;;;;;5055485;28;20810;-53